sensor_id;sensor_type;location;lat;lon;timestamp;P1;durP1;ratioP1;P2;durP2;ratioP2
3811;SDS011;1921;49.368;11.068;2022-12-18T00:01:15;22.65;;;21.60;;
3811;SDS011;1921;49.368;11.068;2022-12-18T00:04:00;20.13;;;19.25;;
3811;SDS011;1921;49.368;11.068;2022-12-18T00:06:28;21.45;;;20.55;;
3811;SDS011;1921;49.368;11.068;2022-12-18T00:08:55;23.42;;;22.23;;
3811;SDS011;1921;49.368;11.068;2022-12-18T00:11:24;21.60;;;20.80;;
3811;SDS011;1921;49.368;11.068;2022-12-18T00:13:53;21.10;;;19.98;;
3811;SDS011;1921;49.368;11.068;2022-12-18T00:16:21;24.05;;;22.85;;
3811;SDS011;1921;49.368;11.068;2022-12-18T00:18:50;21.35;;;20.40;;
3811;SDS011;1921;49.368;11.068;2022-12-18T00:21:19;20.83;;;19.67;;
3811;SDS011;1921;49.368;11.068;2022-12-18T00:23:46;20.35;;;19.55;;
3811;SDS011;1921;49.368;11.068;2022-12-18T00:26:15;20.10;;;19.23;;
3811;SDS011;1921;49.368;11.068;2022-12-18T00:28:47;19.60;;;19.00;;
3811;SDS011;1921;49.368;11.068;2022-12-18T00:31:14;24.10;;;22.90;;
3811;SDS011;1921;49.368;11.068;2022-12-18T00:33:43;22.55;;;21.25;;
3811;SDS011;1921;49.368;11.068;2022-12-18T00:36:11;21.33;;;20.42;;
3811;SDS011;1921;49.368;11.068;2022-12-18T00:38:40;19.25;;;18.58;;
3811;SDS011;1921;49.368;11.068;2022-12-18T00:41:06;22.08;;;21.17;;
3811;SDS011;1921;49.368;11.068;2022-12-18T00:43:33;23.02;;;21.90;;
3811;SDS011;1921;49.368;11.068;2022-12-18T00:45:59;21.80;;;21.02;;
3811;SDS011;1921;49.368;11.068;2022-12-18T00:48:25;26.53;;;25.20;;
3811;SDS011;1921;49.368;11.068;2022-12-18T00:50:51;20.97;;;20.27;;
3811;SDS011;1921;49.368;11.068;2022-12-18T00:53:17;25.30;;;24.20;;
3811;SDS011;1921;49.368;11.068;2022-12-18T00:55:43;22.65;;;21.85;;
3811;SDS011;1921;49.368;11.068;2022-12-18T00:58:10;23.75;;;22.75;;
3811;SDS011;1921;49.368;11.068;2022-12-18T01:00:37;23.80;;;22.80;;
3811;SDS011;1921;49.368;11.068;2022-12-18T01:03:04;25.90;;;24.47;;
3811;SDS011;1921;49.368;11.068;2022-12-18T01:05:30;26.58;;;25.00;;
3811;SDS011;1921;49.368;11.068;2022-12-18T01:07:56;22.80;;;22.00;;
3811;SDS011;1921;49.368;11.068;2022-12-18T01:10:22;23.95;;;23.05;;
3811;SDS011;1921;49.368;11.068;2022-12-18T01:12:48;26.13;;;24.83;;
3811;SDS011;1921;49.368;11.068;2022-12-18T01:15:15;24.33;;;23.48;;
3811;SDS011;1921;49.368;11.068;2022-12-18T01:17:41;28.23;;;26.92;;
3811;SDS011;1921;49.368;11.068;2022-12-18T01:20:08;26.05;;;25.05;;
3811;SDS011;1921;49.368;11.068;2022-12-18T01:22:35;29.83;;;27.40;;
3811;SDS011;1921;49.368;11.068;2022-12-18T01:25:02;26.63;;;25.50;;
3811;SDS011;1921;49.368;11.068;2022-12-18T01:27:30;30.58;;;28.85;;
3811;SDS011;1921;49.368;11.068;2022-12-18T01:29:58;33.15;;;30.48;;
3811;SDS011;1921;49.368;11.068;2022-12-18T01:32:23;29.77;;;28.00;;
3811;SDS011;1921;49.368;11.068;2022-12-18T01:34:49;29.13;;;27.30;;
3811;SDS011;1921;49.368;11.068;2022-12-18T01:37:15;28.27;;;26.93;;
3811;SDS011;1921;49.368;11.068;2022-12-18T01:42:13;27.67;;;26.15;;
3811;SDS011;1921;49.368;11.068;2022-12-18T01:47:48;25.38;;;24.33;;
3811;SDS011;1921;49.368;11.068;2022-12-18T01:53:10;28.23;;;26.77;;
3811;SDS011;1921;49.368;11.068;2022-12-18T01:55:45;32.20;;;29.83;;
3811;SDS011;1921;49.368;11.068;2022-12-18T01:58:16;31.63;;;29.83;;
3811;SDS011;1921;49.368;11.068;2022-12-18T02:00:43;29.92;;;28.02;;
3811;SDS011;1921;49.368;11.068;2022-12-18T02:03:09;29.27;;;28.07;;
3811;SDS011;1921;49.368;11.068;2022-12-18T02:14:42;28.33;;;27.23;;
3811;SDS011;1921;49.368;11.068;2022-12-18T02:17:22;31.73;;;30.23;;
3811;SDS011;1921;49.368;11.068;2022-12-18T02:28:47;31.65;;;30.15;;
3811;SDS011;1921;49.368;11.068;2022-12-18T02:31:40;35.40;;;33.13;;
3811;SDS011;1921;49.368;11.068;2022-12-18T02:34:11;31.23;;;29.92;;
3811;SDS011;1921;49.368;11.068;2022-12-18T02:36:39;34.00;;;32.47;;
3811;SDS011;1921;49.368;11.068;2022-12-18T02:39:08;32.72;;;31.33;;
3811;SDS011;1921;49.368;11.068;2022-12-18T02:41:37;31.50;;;30.23;;
3811;SDS011;1921;49.368;11.068;2022-12-18T02:44:07;31.75;;;30.45;;
3811;SDS011;1921;49.368;11.068;2022-12-18T02:46:37;38.78;;;36.22;;
3811;SDS011;1921;49.368;11.068;2022-12-18T02:54:52;35.50;;;33.83;;
3811;SDS011;1921;49.368;11.068;2022-12-18T02:57:46;33.70;;;31.85;;
3811;SDS011;1921;49.368;11.068;2022-12-18T03:00:52;30.70;;;29.50;;
3811;SDS011;1921;49.368;11.068;2022-12-18T03:03:53;33.75;;;32.28;;
3811;SDS011;1921;49.368;11.068;2022-12-18T03:06:29;35.13;;;32.90;;
3811;SDS011;1921;49.368;11.068;2022-12-18T03:09:02;33.10;;;31.70;;
3811;SDS011;1921;49.368;11.068;2022-12-18T03:11:43;33.55;;;31.83;;
3811;SDS011;1921;49.368;11.068;2022-12-18T03:14:38;36.20;;;33.85;;
3811;SDS011;1921;49.368;11.068;2022-12-18T03:17:05;35.65;;;34.03;;
3811;SDS011;1921;49.368;11.068;2022-12-18T03:19:37;34.67;;;32.55;;
3811;SDS011;1921;49.368;11.068;2022-12-18T03:22:04;31.90;;;30.60;;
3811;SDS011;1921;49.368;11.068;2022-12-18T03:24:32;34.00;;;32.30;;
3811;SDS011;1921;49.368;11.068;2022-12-18T03:27:04;32.92;;;31.50;;
3811;SDS011;1921;49.368;11.068;2022-12-18T03:29:53;33.13;;;31.73;;
3811;SDS011;1921;49.368;11.068;2022-12-18T03:32:33;95.53;;;33.50;;
3811;SDS011;1921;49.368;11.068;2022-12-18T03:35:20;35.22;;;33.25;;
3811;SDS011;1921;49.368;11.068;2022-12-18T03:37:51;35.92;;;33.42;;
3811;SDS011;1921;49.368;11.068;2022-12-18T03:40:17;36.60;;;34.43;;
3811;SDS011;1921;49.368;11.068;2022-12-18T03:42:52;36.78;;;34.72;;
3811;SDS011;1921;49.368;11.068;2022-12-18T03:45:34;35.45;;;33.83;;
3811;SDS011;1921;49.368;11.068;2022-12-18T03:48:18;33.72;;;32.22;;
3811;SDS011;1921;49.368;11.068;2022-12-18T03:50:59;34.28;;;32.78;;
3811;SDS011;1921;49.368;11.068;2022-12-18T03:53:52;36.17;;;34.05;;
3811;SDS011;1921;49.368;11.068;2022-12-18T03:56:29;35.20;;;33.60;;
3811;SDS011;1921;49.368;11.068;2022-12-18T03:59:02;38.33;;;36.22;;
3811;SDS011;1921;49.368;11.068;2022-12-18T04:01:38;35.28;;;33.58;;
3811;SDS011;1921;49.368;11.068;2022-12-18T04:04:09;35.30;;;33.50;;
3811;SDS011;1921;49.368;11.068;2022-12-18T04:06:37;52.45;;;37.30;;
3811;SDS011;1921;49.368;11.068;2022-12-18T04:09:05;36.22;;;34.42;;
3811;SDS011;1921;49.368;11.068;2022-12-18T04:11:31;34.70;;;33.20;;
3811;SDS011;1921;49.368;11.068;2022-12-18T04:13:57;36.67;;;34.33;;
3811;SDS011;1921;49.368;11.068;2022-12-18T04:16:26;37.00;;;35.30;;
3811;SDS011;1921;49.368;11.068;2022-12-18T04:18:53;36.75;;;34.95;;
3811;SDS011;1921;49.368;11.068;2022-12-18T04:21:19;35.15;;;33.60;;
3811;SDS011;1921;49.368;11.068;2022-12-18T04:23:45;36.53;;;34.28;;
3811;SDS011;1921;49.368;11.068;2022-12-18T04:26:11;35.13;;;32.77;;
3811;SDS011;1921;49.368;11.068;2022-12-18T04:28:37;37.53;;;35.10;;
3811;SDS011;1921;49.368;11.068;2022-12-18T04:31:03;37.23;;;34.67;;
3811;SDS011;1921;49.368;11.068;2022-12-18T04:33:30;36.47;;;34.67;;
3811;SDS011;1921;49.368;11.068;2022-12-18T04:35:55;38.23;;;36.30;;
3811;SDS011;1921;49.368;11.068;2022-12-18T04:38:21;35.60;;;33.17;;
3811;SDS011;1921;49.368;11.068;2022-12-18T04:40:47;38.23;;;36.13;;
3811;SDS011;1921;49.368;11.068;2022-12-18T04:43:13;38.60;;;35.37;;
3811;SDS011;1921;49.368;11.068;2022-12-18T04:45:38;39.97;;;37.03;;
3811;SDS011;1921;49.368;11.068;2022-12-18T04:48:04;37.47;;;35.27;;
3811;SDS011;1921;49.368;11.068;2022-12-18T04:50:30;38.55;;;36.33;;
3811;SDS011;1921;49.368;11.068;2022-12-18T04:52:56;35.03;;;33.43;;
3811;SDS011;1921;49.368;11.068;2022-12-18T04:55:22;38.33;;;36.40;;
3811;SDS011;1921;49.368;11.068;2022-12-18T04:57:47;44.10;;;39.67;;
3811;SDS011;1921;49.368;11.068;2022-12-18T05:00:13;37.90;;;36.00;;
3811;SDS011;1921;49.368;11.068;2022-12-18T05:02:40;40.13;;;36.85;;
3811;SDS011;1921;49.368;11.068;2022-12-18T05:05:06;39.37;;;37.00;;
3811;SDS011;1921;49.368;11.068;2022-12-18T05:07:32;44.65;;;40.88;;
3811;SDS011;1921;49.368;11.068;2022-12-18T05:09:58;37.30;;;35.60;;
3811;SDS011;1921;49.368;11.068;2022-12-18T05:12:24;39.63;;;36.87;;
3811;SDS011;1921;49.368;11.068;2022-12-18T05:14:50;37.85;;;35.78;;
3811;SDS011;1921;49.368;11.068;2022-12-18T05:17:15;39.20;;;36.90;;
3811;SDS011;1921;49.368;11.068;2022-12-18T05:19:41;40.97;;;37.77;;
3811;SDS011;1921;49.368;11.068;2022-12-18T05:22:07;38.20;;;36.00;;
3811;SDS011;1921;49.368;11.068;2022-12-18T05:24:34;39.25;;;37.05;;
3811;SDS011;1921;49.368;11.068;2022-12-18T05:27:00;42.83;;;40.03;;
3811;SDS011;1921;49.368;11.068;2022-12-18T05:29:28;39.10;;;36.77;;
3811;SDS011;1921;49.368;11.068;2022-12-18T05:31:54;38.83;;;36.50;;
3811;SDS011;1921;49.368;11.068;2022-12-18T05:34:20;39.83;;;37.37;;
3811;SDS011;1921;49.368;11.068;2022-12-18T05:36:46;44.70;;;40.87;;
3811;SDS011;1921;49.368;11.068;2022-12-18T05:39:11;42.17;;;38.97;;
3811;SDS011;1921;49.368;11.068;2022-12-18T05:41:37;43.23;;;39.63;;
3811;SDS011;1921;49.368;11.068;2022-12-18T05:44:03;45.27;;;41.57;;
3811;SDS011;1921;49.368;11.068;2022-12-18T05:46:29;49.90;;;42.00;;
3811;SDS011;1921;49.368;11.068;2022-12-18T05:48:54;46.63;;;42.30;;
3811;SDS011;1921;49.368;11.068;2022-12-18T05:51:23;39.70;;;37.17;;
3811;SDS011;1921;49.368;11.068;2022-12-18T05:53:49;44.73;;;41.20;;
3811;SDS011;1921;49.368;11.068;2022-12-18T05:56:18;42.40;;;39.13;;
3811;SDS011;1921;49.368;11.068;2022-12-18T05:58:47;45.58;;;41.90;;
3811;SDS011;1921;49.368;11.068;2022-12-18T06:01:22;40.15;;;37.65;;
3811;SDS011;1921;49.368;11.068;2022-12-18T06:03:51;41.75;;;38.72;;
3811;SDS011;1921;49.368;11.068;2022-12-18T06:06:18;38.73;;;36.63;;
3811;SDS011;1921;49.368;11.068;2022-12-18T06:08:47;42.35;;;39.58;;
3811;SDS011;1921;49.368;11.068;2022-12-18T06:11:16;41.65;;;38.33;;
3811;SDS011;1921;49.368;11.068;2022-12-18T06:13:44;42.05;;;39.15;;
3811;SDS011;1921;49.368;11.068;2022-12-18T06:16:10;43.00;;;39.42;;
3811;SDS011;1921;49.368;11.068;2022-12-18T06:18:36;43.17;;;40.07;;
3811;SDS011;1921;49.368;11.068;2022-12-18T06:21:02;45.83;;;41.10;;
3811;SDS011;1921;49.368;11.068;2022-12-18T06:23:28;43.70;;;40.33;;
3811;SDS011;1921;49.368;11.068;2022-12-18T06:25:53;41.60;;;38.73;;
3811;SDS011;1921;49.368;11.068;2022-12-18T06:28:19;40.83;;;38.10;;
3811;SDS011;1921;49.368;11.068;2022-12-18T06:30:45;46.00;;;41.93;;
3811;SDS011;1921;49.368;11.068;2022-12-18T06:33:13;45.20;;;41.53;;
3811;SDS011;1921;49.368;11.068;2022-12-18T06:35:40;42.30;;;39.42;;
3811;SDS011;1921;49.368;11.068;2022-12-18T06:38:09;42.53;;;38.42;;
3811;SDS011;1921;49.368;11.068;2022-12-18T06:40:36;40.95;;;37.88;;
3811;SDS011;1921;49.368;11.068;2022-12-18T06:43:04;42.65;;;39.95;;
3811;SDS011;1921;49.368;11.068;2022-12-18T06:45:30;45.13;;;40.47;;
3811;SDS011;1921;49.368;11.068;2022-12-18T06:47:56;41.00;;;37.60;;
3811;SDS011;1921;49.368;11.068;2022-12-18T06:50:22;41.70;;;38.50;;
3811;SDS011;1921;49.368;11.068;2022-12-18T06:52:48;47.93;;;43.83;;
3811;SDS011;1921;49.368;11.068;2022-12-18T06:55:13;40.20;;;37.53;;
3811;SDS011;1921;49.368;11.068;2022-12-18T06:57:39;72.50;;;42.17;;
3811;SDS011;1921;49.368;11.068;2022-12-18T07:00:05;41.37;;;38.20;;
3811;SDS011;1921;49.368;11.068;2022-12-18T07:02:32;43.50;;;39.97;;
3811;SDS011;1921;49.368;11.068;2022-12-18T07:04:58;41.00;;;37.60;;
3811;SDS011;1921;49.368;11.068;2022-12-18T07:07:23;37.50;;;35.50;;
3811;SDS011;1921;49.368;11.068;2022-12-18T07:09:50;40.43;;;38.03;;
3811;SDS011;1921;49.368;11.068;2022-12-18T07:12:15;39.75;;;37.50;;
3811;SDS011;1921;49.368;11.068;2022-12-18T07:14:41;39.92;;;37.47;;
3811;SDS011;1921;49.368;11.068;2022-12-18T07:17:07;41.90;;;38.70;;
3811;SDS011;1921;49.368;11.068;2022-12-18T07:19:33;40.80;;;38.47;;
3811;SDS011;1921;49.368;11.068;2022-12-18T07:21:59;39.90;;;37.43;;
3811;SDS011;1921;49.368;11.068;2022-12-18T07:24:25;40.13;;;37.87;;
3811;SDS011;1921;49.368;11.068;2022-12-18T07:26:52;41.78;;;38.47;;
3811;SDS011;1921;49.368;11.068;2022-12-18T07:29:18;39.87;;;37.30;;
3811;SDS011;1921;49.368;11.068;2022-12-18T07:31:45;40.47;;;38.00;;
3811;SDS011;1921;49.368;11.068;2022-12-18T07:34:11;45.20;;;41.85;;
3811;SDS011;1921;49.368;11.068;2022-12-18T07:36:38;43.40;;;40.40;;
3811;SDS011;1921;49.368;11.068;2022-12-18T07:39:04;43.07;;;39.93;;
3811;SDS011;1921;49.368;11.068;2022-12-18T07:41:30;42.27;;;39.33;;
3811;SDS011;1921;49.368;11.068;2022-12-18T07:43:55;41.40;;;38.37;;
3811;SDS011;1921;49.368;11.068;2022-12-18T07:46:22;41.00;;;37.60;;
3811;SDS011;1921;49.368;11.068;2022-12-18T07:48:48;45.43;;;41.70;;
3811;SDS011;1921;49.368;11.068;2022-12-18T07:51:13;41.43;;;39.03;;
3811;SDS011;1921;49.368;11.068;2022-12-18T07:53:39;40.37;;;37.53;;
3811;SDS011;1921;49.368;11.068;2022-12-18T07:56:07;38.60;;;36.60;;
3811;SDS011;1921;49.368;11.068;2022-12-18T07:58:35;43.57;;;40.37;;
3811;SDS011;1921;49.368;11.068;2022-12-18T08:01:02;41.27;;;38.40;;
3811;SDS011;1921;49.368;11.068;2022-12-18T08:03:32;40.63;;;38.33;;
3811;SDS011;1921;49.368;11.068;2022-12-18T08:06:03;40.38;;;37.88;;
3811;SDS011;1921;49.368;11.068;2022-12-18T08:08:31;41.93;;;38.93;;
3811;SDS011;1921;49.368;11.068;2022-12-18T08:10:58;40.57;;;38.17;;
3811;SDS011;1921;49.368;11.068;2022-12-18T08:13:24;42.93;;;39.47;;
3811;SDS011;1921;49.368;11.068;2022-12-18T08:16:01;38.50;;;36.50;;
3811;SDS011;1921;49.368;11.068;2022-12-18T08:18:32;40.10;;;37.77;;
3811;SDS011;1921;49.368;11.068;2022-12-18T08:23:34;40.40;;;37.57;;
3811;SDS011;1921;49.368;11.068;2022-12-18T08:26:00;40.00;;;37.50;;
3811;SDS011;1921;49.368;11.068;2022-12-18T08:28:26;41.90;;;38.60;;
3811;SDS011;1921;49.368;11.068;2022-12-18T08:30:52;44.73;;;40.00;;
3811;SDS011;1921;49.368;11.068;2022-12-18T08:33:18;46.73;;;42.37;;
3811;SDS011;1921;49.368;11.068;2022-12-18T08:35:43;40.20;;;37.43;;
3811;SDS011;1921;49.368;11.068;2022-12-18T08:38:11;37.60;;;35.70;;
3811;SDS011;1921;49.368;11.068;2022-12-18T08:40:37;42.87;;;40.10;;
3811;SDS011;1921;49.368;11.068;2022-12-18T08:43:02;43.10;;;39.30;;
3811;SDS011;1921;49.368;11.068;2022-12-18T08:45:46;45.57;;;41.47;;
3811;SDS011;1921;49.368;11.068;2022-12-18T08:48:12;41.70;;;38.10;;
3811;SDS011;1921;49.368;11.068;2022-12-18T08:50:38;44.47;;;41.07;;
3811;SDS011;1921;49.368;11.068;2022-12-18T08:53:05;40.10;;;37.60;;
3811;SDS011;1921;49.368;11.068;2022-12-18T08:55:30;41.63;;;38.93;;
3811;SDS011;1921;49.368;11.068;2022-12-18T08:57:56;43.63;;;40.33;;
3811;SDS011;1921;49.368;11.068;2022-12-18T09:00:22;42.03;;;38.83;;
3811;SDS011;1921;49.368;11.068;2022-12-18T09:02:48;43.83;;;41.03;;
3811;SDS011;1921;49.368;11.068;2022-12-18T09:05:14;44.07;;;40.77;;
3811;SDS011;1921;49.368;11.068;2022-12-18T09:07:39;45.10;;;41.20;;
3811;SDS011;1921;49.368;11.068;2022-12-18T09:10:05;45.43;;;41.43;;
3811;SDS011;1921;49.368;11.068;2022-12-18T09:12:31;43.57;;;40.47;;
3811;SDS011;1921;49.368;11.068;2022-12-18T09:14:57;46.33;;;42.33;;
3811;SDS011;1921;49.368;11.068;2022-12-18T09:17:23;46.07;;;42.73;;
3811;SDS011;1921;49.368;11.068;2022-12-18T09:19:48;45.10;;;41.10;;
3811;SDS011;1921;49.368;11.068;2022-12-18T09:22:14;45.07;;;41.53;;
3811;SDS011;1921;49.368;11.068;2022-12-18T09:24:40;42.07;;;38.97;;
3811;SDS011;1921;49.368;11.068;2022-12-18T09:27:06;47.73;;;43.27;;
3811;SDS011;1921;49.368;11.068;2022-12-18T09:29:32;45.40;;;41.70;;
3811;SDS011;1921;49.368;11.068;2022-12-18T09:31:57;46.73;;;41.97;;
3811;SDS011;1921;49.368;11.068;2022-12-18T09:34:23;42.97;;;39.67;;
3811;SDS011;1921;49.368;11.068;2022-12-18T09:36:49;46.43;;;42.70;;
3811;SDS011;1921;49.368;11.068;2022-12-18T09:39:15;43.17;;;40.07;;
3811;SDS011;1921;49.368;11.068;2022-12-18T09:41:45;44.50;;;40.90;;
3811;SDS011;1921;49.368;11.068;2022-12-18T09:44:27;42.17;;;39.50;;
3811;SDS011;1921;49.368;11.068;2022-12-18T09:47:30;43.90;;;40.37;;
3811;SDS011;1921;49.368;11.068;2022-12-18T09:50:04;42.50;;;39.37;;
3811;SDS011;1921;49.368;11.068;2022-12-18T09:52:49;45.27;;;41.17;;
3811;SDS011;1921;49.368;11.068;2022-12-18T09:55:39;43.67;;;40.43;;
3811;SDS011;1921;49.368;11.068;2022-12-18T10:00:35;44.50;;;40.40;;
3811;SDS011;1921;49.368;11.068;2022-12-18T10:03:03;44.63;;;40.97;;
3811;SDS011;1921;49.368;11.068;2022-12-18T10:11:34;44.83;;;41.33;;
3811;SDS011;1921;49.368;11.068;2022-12-18T10:14:22;42.37;;;39.77;;
3811;SDS011;1921;49.368;11.068;2022-12-18T10:20:28;44.57;;;41.27;;
3811;SDS011;1921;49.368;11.068;2022-12-18T10:26:15;42.67;;;39.97;;
3811;SDS011;1921;49.368;11.068;2022-12-18T10:28:40;42.90;;;39.77;;
3811;SDS011;1921;49.368;11.068;2022-12-18T10:31:23;44.07;;;40.30;;
3811;SDS011;1921;49.368;11.068;2022-12-18T10:33:49;45.27;;;41.00;;
3811;SDS011;1921;49.368;11.068;2022-12-18T10:36:16;46.43;;;42.63;;
3811;SDS011;1921;49.368;11.068;2022-12-18T10:38:42;42.83;;;39.73;;
3811;SDS011;1921;49.368;11.068;2022-12-18T10:43:43;44.17;;;40.47;;
3811;SDS011;1921;49.368;11.068;2022-12-18T10:46:12;48.23;;;44.03;;
3811;SDS011;1921;49.368;11.068;2022-12-18T10:53:54;44.33;;;41.23;;
3811;SDS011;1921;49.368;11.068;2022-12-18T10:56:33;46.27;;;42.33;;
3811;SDS011;1921;49.368;11.068;2022-12-18T10:59:06;46.93;;;43.10;;
3811;SDS011;1921;49.368;11.068;2022-12-18T11:01:48;47.63;;;43.53;;
3811;SDS011;1921;49.368;11.068;2022-12-18T11:04:24;50.43;;;45.33;;
3811;SDS011;1921;49.368;11.068;2022-12-18T11:09:33;45.17;;;40.80;;
3811;SDS011;1921;49.368;11.068;2022-12-18T11:12:03;43.57;;;40.33;;
3811;SDS011;1921;49.368;11.068;2022-12-18T11:14:42;43.57;;;40.47;;
3811;SDS011;1921;49.368;11.068;2022-12-18T11:17:18;44.47;;;40.93;;
3811;SDS011;1921;49.368;11.068;2022-12-18T11:20:18;45.93;;;41.63;;
3811;SDS011;1921;49.368;11.068;2022-12-18T11:23:03;48.67;;;43.97;;
3811;SDS011;1921;49.368;11.068;2022-12-18T11:25:39;47.93;;;43.70;;
3811;SDS011;1921;49.368;11.068;2022-12-18T11:36:55;46.67;;;42.87;;
3811;SDS011;1921;49.368;11.068;2022-12-18T11:39:29;47.10;;;43.20;;
3811;SDS011;1921;49.368;11.068;2022-12-18T11:42:04;44.13;;;40.87;;
3811;SDS011;1921;49.368;11.068;2022-12-18T11:45:02;44.47;;;40.47;;
3811;SDS011;1921;49.368;11.068;2022-12-18T11:47:46;48.67;;;43.77;;
3811;SDS011;1921;49.368;11.068;2022-12-18T11:53:02;45.00;;;41.33;;
3811;SDS011;1921;49.368;11.068;2022-12-18T11:58:50;48.10;;;43.50;;
3811;SDS011;1921;49.368;11.068;2022-12-18T12:01:52;46.07;;;42.40;;
3811;SDS011;1921;49.368;11.068;2022-12-18T12:07:38;45.37;;;41.67;;
3811;SDS011;1921;49.368;11.068;2022-12-18T12:13:16;45.43;;;41.67;;
3811;SDS011;1921;49.368;11.068;2022-12-18T12:16:10;44.67;;;40.97;;
3811;SDS011;1921;49.368;11.068;2022-12-18T12:21:34;43.50;;;40.37;;
3811;SDS011;1921;49.368;11.068;2022-12-18T12:24:12;43.70;;;40.57;;
3811;SDS011;1921;49.368;11.068;2022-12-18T12:33:37;44.87;;;41.87;;
3811;SDS011;1921;49.368;11.068;2022-12-18T12:38:54;44.27;;;40.47;;
3811;SDS011;1921;49.368;11.068;2022-12-18T12:41:26;43.67;;;40.47;;
3811;SDS011;1921;49.368;11.068;2022-12-18T12:44:17;48.07;;;43.77;;
3811;SDS011;1921;49.368;11.068;2022-12-18T12:47:04;45.90;;;42.07;;
3811;SDS011;1921;49.368;11.068;2022-12-18T12:49:39;45.33;;;41.73;;
3811;SDS011;1921;49.368;11.068;2022-12-18T12:52:15;47.33;;;43.13;;
3811;SDS011;1921;49.368;11.068;2022-12-18T12:54:51;45.00;;;41.80;;
3811;SDS011;1921;49.368;11.068;2022-12-18T12:57:20;44.40;;;41.20;;
3811;SDS011;1921;49.368;11.068;2022-12-18T12:59:56;42.80;;;39.97;;
3811;SDS011;1921;49.368;11.068;2022-12-18T13:05:43;43.67;;;40.63;;
3811;SDS011;1921;49.368;11.068;2022-12-18T13:08:25;44.00;;;40.60;;
3811;SDS011;1921;49.368;11.068;2022-12-18T13:10:57;45.87;;;41.63;;
3811;SDS011;1921;49.368;11.068;2022-12-18T13:13:49;46.03;;;42.30;;
3811;SDS011;1921;49.368;11.068;2022-12-18T13:16:21;44.50;;;41.20;;
3811;SDS011;1921;49.368;11.068;2022-12-18T13:18:51;45.07;;;41.67;;
3811;SDS011;1921;49.368;11.068;2022-12-18T13:21:33;49.50;;;44.70;;
3811;SDS011;1921;49.368;11.068;2022-12-18T13:24:15;47.47;;;43.20;;
3811;SDS011;1921;49.368;11.068;2022-12-18T13:26:50;46.93;;;43.23;;
3811;SDS011;1921;49.368;11.068;2022-12-18T13:29:39;43.53;;;40.40;;
3811;SDS011;1921;49.368;11.068;2022-12-18T13:32:18;47.63;;;42.00;;
3811;SDS011;1921;49.368;11.068;2022-12-18T13:37:51;44.27;;;41.27;;
3811;SDS011;1921;49.368;11.068;2022-12-18T13:40:50;47.43;;;42.97;;
3811;SDS011;1921;49.368;11.068;2022-12-18T13:45:49;47.73;;;43.00;;
3811;SDS011;1921;49.368;11.068;2022-12-18T13:48:26;43.27;;;40.20;;
3811;SDS011;1921;49.368;11.068;2022-12-18T13:50:59;49.03;;;44.97;;
3811;SDS011;1921;49.368;11.068;2022-12-18T13:53:39;44.33;;;40.17;;
3811;SDS011;1921;49.368;11.068;2022-12-18T13:56:21;49.70;;;44.90;;
3811;SDS011;1921;49.368;11.068;2022-12-18T13:59:32;43.30;;;40.00;;
3811;SDS011;1921;49.368;11.068;2022-12-18T14:01:46;47.40;;;43.00;;
3811;SDS011;1921;49.368;11.068;2022-12-18T14:04:19;41.53;;;38.80;;
3811;SDS011;1921;49.368;11.068;2022-12-18T14:06:47;44.53;;;40.80;;
3811;SDS011;1921;49.368;11.068;2022-12-18T14:09:24;46.47;;;42.70;;
3811;SDS011;1921;49.368;11.068;2022-12-18T14:11:54;41.70;;;38.77;;
3811;SDS011;1921;49.368;11.068;2022-12-18T14:14:42;41.30;;;38.40;;
3811;SDS011;1921;49.368;11.068;2022-12-18T14:17:12;45.57;;;42.00;;
3811;SDS011;1921;49.368;11.068;2022-12-18T14:19:43;43.20;;;40.00;;
3811;SDS011;1921;49.368;11.068;2022-12-18T14:22:15;46.47;;;42.90;;
3811;SDS011;1921;49.368;11.068;2022-12-18T14:27:46;43.07;;;40.20;;
3811;SDS011;1921;49.368;11.068;2022-12-18T14:30:23;48.40;;;43.97;;
3811;SDS011;1921;49.368;11.068;2022-12-18T14:33:06;44.90;;;41.33;;
3811;SDS011;1921;49.368;11.068;2022-12-18T14:36:03;47.40;;;43.47;;
3811;SDS011;1921;49.368;11.068;2022-12-18T14:41:13;42.67;;;39.30;;
3811;SDS011;1921;49.368;11.068;2022-12-18T14:43:45;43.27;;;40.40;;
3811;SDS011;1921;49.368;11.068;2022-12-18T14:48:57;46.33;;;42.97;;
3811;SDS011;1921;49.368;11.068;2022-12-18T14:51:30;44.10;;;40.10;;
3811;SDS011;1921;49.368;11.068;2022-12-18T14:53:59;44.67;;;41.33;;
3811;SDS011;1921;49.368;11.068;2022-12-18T14:56:36;43.87;;;38.27;;
3811;SDS011;1921;49.368;11.068;2022-12-18T14:59:15;44.20;;;41.20;;
3811;SDS011;1921;49.368;11.068;2022-12-18T15:09:46;42.10;;;39.30;;
3811;SDS011;1921;49.368;11.068;2022-12-18T15:12:45;43.93;;;40.87;;
3811;SDS011;1921;49.368;11.068;2022-12-18T15:18:01;40.47;;;37.55;;
3811;SDS011;1921;49.368;11.068;2022-12-18T15:26:02;45.10;;;41.38;;
3811;SDS011;1921;49.368;11.068;2022-12-18T15:28:54;42.10;;;39.07;;
3811;SDS011;1921;49.368;11.068;2022-12-18T15:31:23;41.47;;;38.37;;
3811;SDS011;1921;49.368;11.068;2022-12-18T15:34:02;46.90;;;42.50;;
3811;SDS011;1921;49.368;11.068;2022-12-18T15:36:50;40.35;;;37.55;;
3811;SDS011;1921;49.368;11.068;2022-12-18T15:39:16;42.58;;;39.80;;
3811;SDS011;1921;49.368;11.068;2022-12-18T15:41:42;46.87;;;42.67;;
3811;SDS011;1921;49.368;11.068;2022-12-18T15:44:28;46.55;;;41.25;;
3811;SDS011;1921;49.368;11.068;2022-12-18T15:46:54;40.93;;;38.57;;
3811;SDS011;1921;49.368;11.068;2022-12-18T15:49:20;42.63;;;39.53;;
3811;SDS011;1921;49.368;11.068;2022-12-18T15:51:45;43.27;;;39.83;;
3811;SDS011;1921;49.368;11.068;2022-12-18T15:54:18;43.60;;;39.95;;
3811;SDS011;1921;49.368;11.068;2022-12-18T15:57:09;43.67;;;40.38;;
3811;SDS011;1921;49.368;11.068;2022-12-18T15:59:48;41.78;;;38.67;;
3811;SDS011;1921;49.368;11.068;2022-12-18T16:02:16;43.42;;;40.13;;
3811;SDS011;1921;49.368;11.068;2022-12-18T16:04:43;40.45;;;37.45;;
3811;SDS011;1921;49.368;11.068;2022-12-18T16:07:10;38.08;;;35.90;;
3811;SDS011;1921;49.368;11.068;2022-12-18T16:09:36;41.42;;;38.63;;
3811;SDS011;1921;49.368;11.068;2022-12-18T16:12:03;41.60;;;38.85;;
3811;SDS011;1921;49.368;11.068;2022-12-18T16:14:31;41.28;;;38.53;;
3811;SDS011;1921;49.368;11.068;2022-12-18T16:16:58;39.95;;;37.55;;
3811;SDS011;1921;49.368;11.068;2022-12-18T16:19:30;40.83;;;38.05;;
3811;SDS011;1921;49.368;11.068;2022-12-18T16:21:56;39.20;;;37.00;;
3811;SDS011;1921;49.368;11.068;2022-12-18T16:24:24;44.95;;;40.67;;
3811;SDS011;1921;49.368;11.068;2022-12-18T16:26:53;41.05;;;38.53;;
3811;SDS011;1921;49.368;11.068;2022-12-18T16:29:19;42.70;;;39.63;;
3811;SDS011;1921;49.368;11.068;2022-12-18T16:31:58;41.42;;;38.72;;
3811;SDS011;1921;49.368;11.068;2022-12-18T16:34:26;40.67;;;38.13;;
3811;SDS011;1921;49.368;11.068;2022-12-18T16:36:58;40.58;;;38.25;;
3811;SDS011;1921;49.368;11.068;2022-12-18T16:39:26;41.13;;;38.80;;
3811;SDS011;1921;49.368;11.068;2022-12-18T16:41:53;44.25;;;40.25;;
3811;SDS011;1921;49.368;11.068;2022-12-18T16:44:19;42.78;;;39.00;;
3811;SDS011;1921;49.368;11.068;2022-12-18T16:46:45;39.90;;;37.25;;
3811;SDS011;1921;49.368;11.068;2022-12-18T16:49:12;40.85;;;38.38;;
3811;SDS011;1921;49.368;11.068;2022-12-18T16:51:39;43.83;;;39.88;;
3811;SDS011;1921;49.368;11.068;2022-12-18T16:54:05;46.60;;;42.15;;
3811;SDS011;1921;49.368;11.068;2022-12-18T16:56:31;40.57;;;38.13;;
3811;SDS011;1921;49.368;11.068;2022-12-18T16:58:58;42.83;;;39.53;;
3811;SDS011;1921;49.368;11.068;2022-12-18T17:01:26;39.80;;;36.55;;
3811;SDS011;1921;49.368;11.068;2022-12-18T17:04:01;39.35;;;36.97;;